sensor_id;sensor_type;location;lat;lon;timestamp;P1;durP1;ratioP1;P2;durP2;ratioP2
71730;SDS011;65964;43.496;3.710;2023-02-15T00:00:26;54.35;;;36.28;;
71730;SDS011;65964;43.496;3.710;2023-02-15T00:02:52;51.88;;;36.40;;
71730;SDS011;65964;43.496;3.710;2023-02-15T00:05:18;49.40;;;33.95;;
71730;SDS011;65964;43.496;3.710;2023-02-15T00:07:44;45.47;;;34.10;;
71730;SDS011;65964;43.496;3.710;2023-02-15T00:10:10;44.60;;;33.38;;
71730;SDS011;65964;43.496;3.710;2023-02-15T00:12:37;48.97;;;34.00;;
71730;SDS011;65964;43.496;3.710;2023-02-15T00:15:03;46.60;;;33.50;;
71730;SDS011;65964;43.496;3.710;2023-02-15T00:17:29;48.25;;;34.55;;
71730;SDS011;65964;43.496;3.710;2023-02-15T00:19:55;45.97;;;32.88;;
71730;SDS011;65964;43.496;3.710;2023-02-15T00:22:21;49.35;;;33.38;;
71730;SDS011;65964;43.496;3.710;2023-02-15T00:24:47;45.33;;;31.48;;
71730;SDS011;65964;43.496;3.710;2023-02-15T00:27:15;44.50;;;32.15;;
71730;SDS011;65964;43.496;3.710;2023-02-15T00:29:41;46.20;;;31.70;;
71730;SDS011;65964;43.496;3.710;2023-02-15T00:32:07;45.03;;;31.20;;
71730;SDS011;65964;43.496;3.710;2023-02-15T00:34:33;44.22;;;32.72;;
71730;SDS011;65964;43.496;3.710;2023-02-15T00:36:59;41.45;;;31.27;;
71730;SDS011;65964;43.496;3.710;2023-02-15T00:39:25;44.03;;;31.27;;
71730;SDS011;65964;43.496;3.710;2023-02-15T00:41:52;42.90;;;31.23;;
71730;SDS011;65964;43.496;3.710;2023-02-15T00:44:18;45.65;;;31.30;;
71730;SDS011;65964;43.496;3.710;2023-02-15T00:46:44;44.05;;;30.13;;
71730;SDS011;65964;43.496;3.710;2023-02-15T00:49:10;40.67;;;29.67;;
71730;SDS011;65964;43.496;3.710;2023-02-15T00:51:36;40.88;;;30.23;;
71730;SDS011;65964;43.496;3.710;2023-02-15T00:54:02;40.63;;;30.30;;
71730;SDS011;65964;43.496;3.710;2023-02-15T00:56:28;42.95;;;29.70;;
71730;SDS011;65964;43.496;3.710;2023-02-15T00:58:54;43.65;;;30.73;;
71730;SDS011;65964;43.496;3.710;2023-02-15T01:01:20;42.05;;;30.55;;
71730;SDS011;65964;43.496;3.710;2023-02-15T01:03:47;43.95;;;31.13;;
71730;SDS011;65964;43.496;3.710;2023-02-15T01:06:14;43.22;;;30.85;;
71730;SDS011;65964;43.496;3.710;2023-02-15T01:08:40;47.72;;;31.80;;
71730;SDS011;65964;43.496;3.710;2023-02-15T01:11:07;44.40;;;31.55;;
71730;SDS011;65964;43.496;3.710;2023-02-15T01:13:34;44.45;;;32.30;;
71730;SDS011;65964;43.496;3.710;2023-02-15T01:16:00;44.58;;;31.45;;
71730;SDS011;65964;43.496;3.710;2023-02-15T01:18:27;46.08;;;31.85;;
71730;SDS011;65964;43.496;3.710;2023-02-15T01:20:53;45.00;;;31.75;;
71730;SDS011;65964;43.496;3.710;2023-02-15T01:23:19;47.00;;;32.85;;
71730;SDS011;65964;43.496;3.710;2023-02-15T01:25:45;46.45;;;32.53;;
71730;SDS011;65964;43.496;3.710;2023-02-15T01:28:11;49.67;;;32.97;;
71730;SDS011;65964;43.496;3.710;2023-02-15T01:30:37;40.38;;;30.85;;
71730;SDS011;65964;43.496;3.710;2023-02-15T01:33:03;44.42;;;31.23;;
71730;SDS011;65964;43.496;3.710;2023-02-15T01:35:29;40.45;;;29.98;;
71730;SDS011;65964;43.496;3.710;2023-02-15T01:37:55;41.22;;;29.65;;
71730;SDS011;65964;43.496;3.710;2023-02-15T01:40:22;42.45;;;30.13;;
71730;SDS011;65964;43.496;3.710;2023-02-15T01:42:54;45.40;;;30.65;;
71730;SDS011;65964;43.496;3.710;2023-02-15T01:45:25;42.72;;;30.60;;
71730;SDS011;65964;43.496;3.710;2023-02-15T01:48:36;47.08;;;30.45;;
71730;SDS011;65964;43.496;3.710;2023-02-15T01:50:38;44.25;;;31.23;;
71730;SDS011;65964;43.496;3.710;2023-02-15T01:55:47;39.92;;;28.65;;
71730;SDS011;65964;43.496;3.710;2023-02-15T01:58:13;39.08;;;27.42;;
71730;SDS011;65964;43.496;3.710;2023-02-15T02:00:39;38.55;;;26.73;;
71730;SDS011;65964;43.496;3.710;2023-02-15T02:03:06;38.03;;;27.17;;
71730;SDS011;65964;43.496;3.710;2023-02-15T02:05:32;40.05;;;29.40;;
71730;SDS011;65964;43.496;3.710;2023-02-15T02:07:59;38.08;;;27.15;;
71730;SDS011;65964;43.496;3.710;2023-02-15T02:10:27;39.38;;;26.40;;
71730;SDS011;65964;43.496;3.710;2023-02-15T02:12:54;38.10;;;27.40;;
71730;SDS011;65964;43.496;3.710;2023-02-15T02:28:37;35.53;;;25.38;;
71730;SDS011;65964;43.496;3.710;2023-02-15T02:33:48;36.67;;;26.27;;
71730;SDS011;65964;43.496;3.710;2023-02-15T02:36:21;38.90;;;25.42;;
71730;SDS011;65964;43.496;3.710;2023-02-15T02:38:55;36.85;;;25.40;;
71730;SDS011;65964;43.496;3.710;2023-02-15T02:41:27;36.70;;;25.20;;
71730;SDS011;65964;43.496;3.710;2023-02-15T02:46:28;38.08;;;26.13;;
71730;SDS011;65964;43.496;3.710;2023-02-15T02:48:56;36.17;;;25.83;;
71730;SDS011;65964;43.496;3.710;2023-02-15T02:51:22;37.92;;;26.65;;
71730;SDS011;65964;43.496;3.710;2023-02-15T02:53:53;36.17;;;25.75;;
71730;SDS011;65964;43.496;3.710;2023-02-15T02:56:26;39.42;;;26.73;;
71730;SDS011;65964;43.496;3.710;2023-02-15T02:59:00;38.03;;;26.80;;
71730;SDS011;65964;43.496;3.710;2023-02-15T03:01:36;37.45;;;26.58;;
71730;SDS011;65964;43.496;3.710;2023-02-15T03:18:55;37.33;;;25.60;;
71730;SDS011;65964;43.496;3.710;2023-02-15T03:21:45;38.33;;;26.10;;
71730;SDS011;65964;43.496;3.710;2023-02-15T03:24:14;39.17;;;26.92;;
71730;SDS011;65964;43.496;3.710;2023-02-15T03:26:42;42.60;;;28.63;;
71730;SDS011;65964;43.496;3.710;2023-02-15T03:29:09;42.80;;;28.13;;
71730;SDS011;65964;43.496;3.710;2023-02-15T03:31:37;41.05;;;27.02;;
71730;SDS011;65964;43.496;3.710;2023-02-15T03:34:04;37.47;;;26.40;;
71730;SDS011;65964;43.496;3.710;2023-02-15T03:36:49;38.83;;;27.15;;
71730;SDS011;65964;43.496;3.710;2023-02-15T03:41:57;38.95;;;26.95;;
71730;SDS011;65964;43.496;3.710;2023-02-15T03:44:27;39.75;;;26.70;;
71730;SDS011;65964;43.496;3.710;2023-02-15T03:47:01;39.97;;;27.23;;
71730;SDS011;65964;43.496;3.710;2023-02-15T03:50:02;39.53;;;26.30;;
71730;SDS011;65964;43.496;3.710;2023-02-15T03:52:21;36.42;;;25.65;;
71730;SDS011;65964;43.496;3.710;2023-02-15T03:54:48;37.13;;;26.05;;
71730;SDS011;65964;43.496;3.710;2023-02-15T03:57:16;38.35;;;26.02;;
71730;SDS011;65964;43.496;3.710;2023-02-15T04:00:11;37.22;;;26.17;;
71730;SDS011;65964;43.496;3.710;2023-02-15T04:05:28;40.65;;;26.60;;
71730;SDS011;65964;43.496;3.710;2023-02-15T04:07:54;36.58;;;26.83;;
71730;SDS011;65964;43.496;3.710;2023-02-15T04:10:20;38.88;;;26.80;;
71730;SDS011;65964;43.496;3.710;2023-02-15T04:13:04;39.00;;;26.60;;
71730;SDS011;65964;43.496;3.710;2023-02-15T04:15:30;39.28;;;26.08;;
71730;SDS011;65964;43.496;3.710;2023-02-15T04:18:15;41.30;;;26.80;;
71730;SDS011;65964;43.496;3.710;2023-02-15T04:20:45;36.83;;;25.25;;
71730;SDS011;65964;43.496;3.710;2023-02-15T04:23:30;34.45;;;24.83;;
71730;SDS011;65964;43.496;3.710;2023-02-15T04:26:15;33.80;;;23.30;;
71730;SDS011;65964;43.496;3.710;2023-02-15T04:28:41;35.70;;;23.50;;
71730;SDS011;65964;43.496;3.710;2023-02-15T04:31:07;39.15;;;26.75;;
71730;SDS011;65964;43.496;3.710;2023-02-15T04:33:33;48.50;;;29.35;;
71730;SDS011;65964;43.496;3.710;2023-02-15T04:36:00;41.53;;;26.55;;
71730;SDS011;65964;43.496;3.710;2023-02-15T04:38:26;36.15;;;23.88;;
71730;SDS011;65964;43.496;3.710;2023-02-15T04:40:52;32.78;;;21.92;;
71730;SDS011;65964;43.496;3.710;2023-02-15T04:43:19;29.95;;;21.90;;
71730;SDS011;65964;43.496;3.710;2023-02-15T04:45:51;33.58;;;22.33;;
71730;SDS011;65964;43.496;3.710;2023-02-15T04:48:17;32.42;;;21.85;;
71730;SDS011;65964;43.496;3.710;2023-02-15T04:50:43;30.83;;;21.67;;
71730;SDS011;65964;43.496;3.710;2023-02-15T04:53:09;33.05;;;23.00;;
71730;SDS011;65964;43.496;3.710;2023-02-15T04:55:36;38.03;;;24.23;;
71730;SDS011;65964;43.496;3.710;2023-02-15T04:58:02;36.05;;;24.70;;
71730;SDS011;65964;43.496;3.710;2023-02-15T05:00:28;39.28;;;26.38;;
71730;SDS011;65964;43.496;3.710;2023-02-15T05:02:54;38.17;;;24.83;;
71730;SDS011;65964;43.496;3.710;2023-02-15T05:05:20;42.75;;;25.90;;
71730;SDS011;65964;43.496;3.710;2023-02-15T05:07:46;34.72;;;23.75;;
71730;SDS011;65964;43.496;3.710;2023-02-15T05:10:12;35.50;;;25.58;;
71730;SDS011;65964;43.496;3.710;2023-02-15T05:12:38;37.03;;;25.38;;
71730;SDS011;65964;43.496;3.710;2023-02-15T05:15:04;36.35;;;24.15;;
71730;SDS011;65964;43.496;3.710;2023-02-15T05:17:30;36.10;;;25.40;;
71730;SDS011;65964;43.496;3.710;2023-02-15T05:19:56;37.35;;;25.08;;
71730;SDS011;65964;43.496;3.710;2023-02-15T05:22:22;45.42;;;26.45;;
71730;SDS011;65964;43.496;3.710;2023-02-15T05:24:48;35.53;;;25.40;;
71730;SDS011;65964;43.496;3.710;2023-02-15T05:27:33;36.58;;;25.25;;
71730;SDS011;65964;43.496;3.710;2023-02-15T05:30:18;37.20;;;25.13;;
71730;SDS011;65964;43.496;3.710;2023-02-15T05:32:44;42.63;;;26.40;;
71730;SDS011;65964;43.496;3.710;2023-02-15T05:35:13;43.40;;;26.08;;
71730;SDS011;65964;43.496;3.710;2023-02-15T05:37:40;38.15;;;25.77;;
71730;SDS011;65964;43.496;3.710;2023-02-15T05:40:07;43.33;;;27.25;;
71730;SDS011;65964;43.496;3.710;2023-02-15T05:42:33;38.38;;;26.08;;
71730;SDS011;65964;43.496;3.710;2023-02-15T05:44:59;40.22;;;26.65;;
71730;SDS011;65964;43.496;3.710;2023-02-15T05:47:25;59.50;;;27.20;;
71730;SDS011;65964;43.496;3.710;2023-02-15T05:49:51;40.38;;;24.25;;
71730;SDS011;65964;43.496;3.710;2023-02-15T05:52:17;44.17;;;26.38;;
71730;SDS011;65964;43.496;3.710;2023-02-15T05:54:43;38.17;;;24.45;;
71730;SDS011;65964;43.496;3.710;2023-02-15T05:57:09;40.28;;;25.25;;
71730;SDS011;65964;43.496;3.710;2023-02-15T05:59:35;34.95;;;25.27;;
71730;SDS011;65964;43.496;3.710;2023-02-15T06:02:01;37.45;;;24.60;;
71730;SDS011;65964;43.496;3.710;2023-02-15T06:04:27;38.15;;;25.33;;
71730;SDS011;65964;43.496;3.710;2023-02-15T06:06:53;43.05;;;26.20;;
71730;SDS011;65964;43.496;3.710;2023-02-15T06:09:19;42.15;;;25.40;;
71730;SDS011;65964;43.496;3.710;2023-02-15T06:11:45;44.47;;;27.00;;
71730;SDS011;65964;43.496;3.710;2023-02-15T06:14:11;45.78;;;27.33;;
71730;SDS011;65964;43.496;3.710;2023-02-15T06:16:37;48.13;;;26.98;;
71730;SDS011;65964;43.496;3.710;2023-02-15T06:19:03;41.28;;;25.40;;
71730;SDS011;65964;43.496;3.710;2023-02-15T06:21:30;52.30;;;29.58;;
71730;SDS011;65964;43.496;3.710;2023-02-15T06:23:56;42.78;;;28.13;;
71730;SDS011;65964;43.496;3.710;2023-02-15T06:26:22;46.38;;;25.50;;
71730;SDS011;65964;43.496;3.710;2023-02-15T06:28:48;35.92;;;23.92;;
71730;SDS011;65964;43.496;3.710;2023-02-15T06:31:14;37.30;;;22.92;;
71730;SDS011;65964;43.496;3.710;2023-02-15T06:33:40;36.33;;;22.05;;
71730;SDS011;65964;43.496;3.710;2023-02-15T06:36:06;33.05;;;23.75;;
71730;SDS011;65964;43.496;3.710;2023-02-15T06:38:33;33.95;;;25.15;;
71730;SDS011;65964;43.496;3.710;2023-02-15T06:40:59;40.15;;;24.45;;
71730;SDS011;65964;43.496;3.710;2023-02-15T06:43:25;42.55;;;25.42;;
71730;SDS011;65964;43.496;3.710;2023-02-15T06:45:51;53.92;;;29.17;;
71730;SDS011;65964;43.496;3.710;2023-02-15T06:48:17;48.70;;;29.13;;
71730;SDS011;65964;43.496;3.710;2023-02-15T06:50:43;36.40;;;23.88;;
71730;SDS011;65964;43.496;3.710;2023-02-15T06:53:09;34.75;;;23.08;;
71730;SDS011;65964;43.496;3.710;2023-02-15T06:55:35;31.88;;;21.58;;
71730;SDS011;65964;43.496;3.710;2023-02-15T06:58:01;32.13;;;21.45;;
71730;SDS011;65964;43.496;3.710;2023-02-15T07:00:27;42.22;;;27.50;;
71730;SDS011;65964;43.496;3.710;2023-02-15T07:02:54;42.60;;;26.25;;
71730;SDS011;65964;43.496;3.710;2023-02-15T07:05:23;36.13;;;26.83;;
71730;SDS011;65964;43.496;3.710;2023-02-15T07:07:49;36.15;;;22.98;;
71730;SDS011;65964;43.496;3.710;2023-02-15T07:10:15;30.95;;;21.42;;
71730;SDS011;65964;43.496;3.710;2023-02-15T07:12:42;38.03;;;22.25;;
71730;SDS011;65964;43.496;3.710;2023-02-15T07:15:10;35.33;;;22.27;;
71730;SDS011;65964;43.496;3.710;2023-02-15T07:17:36;34.67;;;20.98;;
71730;SDS011;65964;43.496;3.710;2023-02-15T07:20:06;35.78;;;20.38;;
71730;SDS011;65964;43.496;3.710;2023-02-15T07:22:34;31.80;;;20.38;;
71730;SDS011;65964;43.496;3.710;2023-02-15T07:25:04;48.30;;;22.40;;
71730;SDS011;65964;43.496;3.710;2023-02-15T07:27:30;42.70;;;21.95;;
71730;SDS011;65964;43.496;3.710;2023-02-15T07:29:57;35.70;;;21.33;;
71730;SDS011;65964;43.496;3.710;2023-02-15T07:32:23;35.47;;;21.33;;
71730;SDS011;65964;43.496;3.710;2023-02-15T07:34:49;37.92;;;21.48;;
71730;SDS011;65964;43.496;3.710;2023-02-15T07:37:15;37.10;;;19.48;;
71730;SDS011;65964;43.496;3.710;2023-02-15T07:39:41;30.60;;;19.33;;
71730;SDS011;65964;43.496;3.710;2023-02-15T07:42:07;52.15;;;24.83;;
71730;SDS011;65964;43.496;3.710;2023-02-15T07:44:33;37.90;;;20.67;;
71730;SDS011;65964;43.496;3.710;2023-02-15T07:46:59;36.30;;;24.40;;
71730;SDS011;65964;43.496;3.710;2023-02-15T07:49:25;48.03;;;27.50;;
71730;SDS011;65964;43.496;3.710;2023-02-15T07:51:51;35.05;;;20.52;;
71730;SDS011;65964;43.496;3.710;2023-02-15T07:54:17;43.67;;;25.95;;
71730;SDS011;65964;43.496;3.710;2023-02-15T07:56:43;30.88;;;21.48;;
71730;SDS011;65964;43.496;3.710;2023-02-15T07:59:09;38.83;;;25.50;;
71730;SDS011;65964;43.496;3.710;2023-02-15T08:01:36;33.30;;;21.25;;
71730;SDS011;65964;43.496;3.710;2023-02-15T08:04:03;33.17;;;20.65;;
71730;SDS011;65964;43.496;3.710;2023-02-15T08:06:31;30.27;;;19.75;;
71730;SDS011;65964;43.496;3.710;2023-02-15T08:08:58;34.72;;;21.27;;
71730;SDS011;65964;43.496;3.710;2023-02-15T08:11:26;29.42;;;18.90;;
71730;SDS011;65964;43.496;3.710;2023-02-15T08:21:33;32.70;;;18.15;;
71730;SDS011;65964;43.496;3.710;2023-02-15T08:23:59;26.17;;;17.00;;
71730;SDS011;65964;43.496;3.710;2023-02-15T08:26:26;30.92;;;18.45;;
71730;SDS011;65964;43.496;3.710;2023-02-15T08:28:52;52.13;;;27.02;;
71730;SDS011;65964;43.496;3.710;2023-02-15T08:31:19;42.78;;;21.48;;
71730;SDS011;65964;43.496;3.710;2023-02-15T08:33:45;34.45;;;22.23;;
71730;SDS011;65964;43.496;3.710;2023-02-15T08:36:12;31.85;;;20.33;;
71730;SDS011;65964;43.496;3.710;2023-02-15T08:38:39;31.23;;;20.50;;
71730;SDS011;65964;43.496;3.710;2023-02-15T08:41:09;31.00;;;19.33;;
71730;SDS011;65964;43.496;3.710;2023-02-15T08:43:35;38.22;;;24.98;;
71730;SDS011;65964;43.496;3.710;2023-02-15T08:46:02;26.27;;;17.85;;
71730;SDS011;65964;43.496;3.710;2023-02-15T08:48:28;31.70;;;19.95;;
71730;SDS011;65964;43.496;3.710;2023-02-15T08:50:54;28.20;;;16.67;;
71730;SDS011;65964;43.496;3.710;2023-02-15T08:53:20;26.35;;;16.67;;
71730;SDS011;65964;43.496;3.710;2023-02-15T08:55:47;41.88;;;23.70;;
71730;SDS011;65964;43.496;3.710;2023-02-15T08:58:16;32.47;;;20.40;;
71730;SDS011;65964;43.496;3.710;2023-02-15T09:00:42;31.05;;;20.38;;
71730;SDS011;65964;43.496;3.710;2023-02-15T09:03:08;29.58;;;19.13;;
71730;SDS011;65964;43.496;3.710;2023-02-15T09:05:34;32.45;;;19.92;;
71730;SDS011;65964;43.496;3.710;2023-02-15T09:08:00;34.78;;;19.90;;
71730;SDS011;65964;43.496;3.710;2023-02-15T09:10:26;26.20;;;17.30;;
71730;SDS011;65964;43.496;3.710;2023-02-15T09:12:52;32.97;;;20.48;;
71730;SDS011;65964;43.496;3.710;2023-02-15T09:15:18;25.40;;;17.05;;
71730;SDS011;65964;43.496;3.710;2023-02-15T09:17:44;22.42;;;16.20;;
71730;SDS011;65964;43.496;3.710;2023-02-15T09:20:10;24.35;;;17.08;;
71730;SDS011;65964;43.496;3.710;2023-02-15T09:22:36;24.00;;;15.80;;
71730;SDS011;65964;43.496;3.710;2023-02-15T09:25:03;26.83;;;16.90;;
71730;SDS011;65964;43.496;3.710;2023-02-15T09:27:29;25.20;;;16.83;;
71730;SDS011;65964;43.496;3.710;2023-02-15T09:29:55;24.50;;;16.55;;
71730;SDS011;65964;43.496;3.710;2023-02-15T09:32:21;31.25;;;19.58;;
71730;SDS011;65964;43.496;3.710;2023-02-15T09:34:47;27.63;;;19.55;;
71730;SDS011;65964;43.496;3.710;2023-02-15T09:37:13;24.90;;;18.23;;
71730;SDS011;65964;43.496;3.710;2023-02-15T09:39:40;26.67;;;18.90;;
71730;SDS011;65964;43.496;3.710;2023-02-15T09:42:26;33.80;;;21.92;;
71730;SDS011;65964;43.496;3.710;2023-02-15T10:00:35;28.83;;;21.48;;
71730;SDS011;65964;43.496;3.710;2023-02-15T10:08:48;22.73;;;17.45;;
71730;SDS011;65964;43.496;3.710;2023-02-15T10:14:17;25.30;;;18.02;;
71730;SDS011;65964;43.496;3.710;2023-02-15T10:17:06;27.85;;;20.52;;
71730;SDS011;65964;43.496;3.710;2023-02-15T10:19:40;25.60;;;18.27;;
71730;SDS011;65964;43.496;3.710;2023-02-15T10:27:14;26.38;;;17.80;;
71730;SDS011;65964;43.496;3.710;2023-02-15T10:30:27;23.90;;;16.70;;
71730;SDS011;65964;43.496;3.710;2023-02-15T10:32:28;24.80;;;16.63;;
71730;SDS011;65964;43.496;3.710;2023-02-15T10:51:01;26.13;;;15.27;;
71730;SDS011;65964;43.496;3.710;2023-02-15T10:58:48;22.52;;;15.85;;
71730;SDS011;65964;43.496;3.710;2023-02-15T11:01:25;21.58;;;14.30;;
71730;SDS011;65964;43.496;3.710;2023-02-15T11:06:29;21.48;;;13.45;;
71730;SDS011;65964;43.496;3.710;2023-02-15T11:08:57;20.80;;;13.15;;
71730;SDS011;65964;43.496;3.710;2023-02-15T11:11:36;19.38;;;11.82;;
71730;SDS011;65964;43.496;3.710;2023-02-15T11:16:46;16.08;;;11.38;;
71730;SDS011;65964;43.496;3.710;2023-02-15T11:19:19;21.95;;;13.05;;
71730;SDS011;65964;43.496;3.710;2023-02-15T11:21:48;23.13;;;13.95;;
71730;SDS011;65964;43.496;3.710;2023-02-15T11:24:16;19.30;;;12.55;;
71730;SDS011;65964;43.496;3.710;2023-02-15T11:26:56;18.25;;;11.15;;
71730;SDS011;65964;43.496;3.710;2023-02-15T11:29:25;18.38;;;11.60;;
71730;SDS011;65964;43.496;3.710;2023-02-15T11:32:13;17.92;;;11.70;;
71730;SDS011;65964;43.496;3.710;2023-02-15T11:34:50;19.20;;;12.48;;
71730;SDS011;65964;43.496;3.710;2023-02-15T11:39:43;15.85;;;10.70;;
71730;SDS011;65964;43.496;3.710;2023-02-15T11:42:11;17.92;;;11.27;;
71730;SDS011;65964;43.496;3.710;2023-02-15T11:47:20;15.43;;;10.93;;
71730;SDS011;65964;43.496;3.710;2023-02-15T11:49:46;15.82;;;10.15;;
71730;SDS011;65964;43.496;3.710;2023-02-15T11:52:13;14.77;;;10.68;;
71730;SDS011;65964;43.496;3.710;2023-02-15T11:54:41;14.07;;;9.70;;
71730;SDS011;65964;43.496;3.710;2023-02-15T11:59:42;13.60;;;10.38;;
71730;SDS011;65964;43.496;3.710;2023-02-15T12:02:19;13.45;;;8.63;;
71730;SDS011;65964;43.496;3.710;2023-02-15T12:04:49;15.35;;;10.68;;
71730;SDS011;65964;43.496;3.710;2023-02-15T12:07:23;19.15;;;11.82;;
71730;SDS011;65964;43.496;3.710;2023-02-15T12:12:37;10.00;;;7.07;;
71730;SDS011;65964;43.496;3.710;2023-02-15T12:15:07;14.57;;;9.27;;
71730;SDS011;65964;43.496;3.710;2023-02-15T12:22:35;12.55;;;8.50;;
71730;SDS011;65964;43.496;3.710;2023-02-15T12:25:03;14.27;;;8.98;;
71730;SDS011;65964;43.496;3.710;2023-02-15T12:27:31;13.70;;;8.88;;
71730;SDS011;65964;43.496;3.710;2023-02-15T12:32:28;11.52;;;8.27;;
71730;SDS011;65964;43.496;3.710;2023-02-15T12:34:55;12.55;;;8.50;;
71730;SDS011;65964;43.496;3.710;2023-02-15T12:37:27;14.35;;;9.50;;
71730;SDS011;65964;43.496;3.710;2023-02-15T12:39:58;11.90;;;8.40;;
71730;SDS011;65964;43.496;3.710;2023-02-15T12:42:24;8.90;;;6.35;;
71730;SDS011;65964;43.496;3.710;2023-02-15T12:44:56;10.25;;;7.22;;
71730;SDS011;65964;43.496;3.710;2023-02-15T12:47:22;10.77;;;6.85;;
71730;SDS011;65964;43.496;3.710;2023-02-15T12:52:36;11.40;;;6.70;;
71730;SDS011;65964;43.496;3.710;2023-02-15T12:57:48;10.02;;;6.60;;
71730;SDS011;65964;43.496;3.710;2023-02-15T13:02:44;12.43;;;8.48;;
71730;SDS011;65964;43.496;3.710;2023-02-15T13:07:57;25.20;;;14.50;;
71730;SDS011;65964;43.496;3.710;2023-02-15T13:10:28;16.15;;;9.80;;
71730;SDS011;65964;43.496;3.710;2023-02-15T13:12:55;13.23;;;7.88;;
71730;SDS011;65964;43.496;3.710;2023-02-15T13:15:41;9.80;;;6.45;;
71730;SDS011;65964;43.496;3.710;2023-02-15T13:18:11;17.85;;;8.63;;
71730;SDS011;65964;43.496;3.710;2023-02-15T13:20:38;10.52;;;6.07;;
71730;SDS011;65964;43.496;3.710;2023-02-15T13:23:06;9.55;;;5.72;;
71730;SDS011;65964;43.496;3.710;2023-02-15T13:25:39;11.60;;;6.38;;
71730;SDS011;65964;43.496;3.710;2023-02-15T13:28:05;9.77;;;5.97;;
71730;SDS011;65964;43.496;3.710;2023-02-15T13:30:35;9.77;;;5.68;;
71730;SDS011;65964;43.496;3.710;2023-02-15T13:33:10;8.30;;;5.15;;
71730;SDS011;65964;43.496;3.710;2023-02-15T13:35:43;11.75;;;4.95;;
71730;SDS011;65964;43.496;3.710;2023-02-15T13:38:13;11.95;;;5.45;;
71730;SDS011;65964;43.496;3.710;2023-02-15T13:40:58;10.98;;;5.53;;
71730;SDS011;65964;43.496;3.710;2023-02-15T13:43:28;8.10;;;5.05;;
71730;SDS011;65964;43.496;3.710;2023-02-15T13:48:39;7.07;;;4.50;;
71730;SDS011;65964;43.496;3.710;2023-02-15T13:51:41;9.30;;;4.70;;
71730;SDS011;65964;43.496;3.710;2023-02-15T13:54:06;7.75;;;4.07;;
71730;SDS011;65964;43.496;3.710;2023-02-15T14:01:58;7.05;;;3.40;;
71730;SDS011;65964;43.496;3.710;2023-02-15T14:04:35;7.40;;;3.95;;
71730;SDS011;65964;43.496;3.710;2023-02-15T14:10:24;7.38;;;3.38;;
71730;SDS011;65964;43.496;3.710;2023-02-15T14:20:24;8.07;;;3.65;;
71730;SDS011;65964;43.496;3.710;2023-02-15T14:28:36;6.72;;;3.90;;
71730;SDS011;65964;43.496;3.710;2023-02-15T14:31:04;7.15;;;3.97;;
71730;SDS011;65964;43.496;3.710;2023-02-15T14:33:39;6.80;;;3.42;;
71730;SDS011;65964;43.496;3.710;2023-02-15T14:36:06;12.05;;;3.85;;
71730;SDS011;65964;43.496;3.710;2023-02-15T14:38:44;7.28;;;3.70;;
71730;SDS011;65964;43.496;3.710;2023-02-15T14:43:45;6.60;;;3.50;;
71730;SDS011;65964;43.496;3.710;2023-02-15T14:48:55;8.52;;;3.60;;
71730;SDS011;65964;43.496;3.710;2023-02-15T14:51:53;8.15;;;3.50;;
71730;SDS011;65964;43.496;3.710;2023-02-15T14:56:43;6.85;;;3.60;;
71730;SDS011;65964;43.496;3.710;2023-02-15T15:01:39;9.38;;;3.42;;
71730;SDS011;65964;43.496;3.710;2023-02-15T15:04:21;5.30;;;3.20;;
71730;SDS011;65964;43.496;3.710;2023-02-15T15:06:57;5.72;;;3.45;;
71730;SDS011;65964;43.496;3.710;2023-02-15T15:09:27;9.13;;;3.72;;
71730;SDS011;65964;43.496;3.710;2023-02-15T15:11:54;5.03;;;3.03;;
71730;SDS011;65964;43.496;3.710;2023-02-15T15:16:59;5.50;;;3.05;;
71730;SDS011;65964;43.496;3.710;2023-02-15T15:22:19;5.45;;;3.17;;
71730;SDS011;65964;43.496;3.710;2023-02-15T15:24:46;6.40;;;3.28;;
71730;SDS011;65964;43.496;3.710;2023-02-15T15:29:57;6.22;;;3.30;;
71730;SDS011;65964;43.496;3.710;2023-02-15T15:32:24;7.93;;;3.30;;
71730;SDS011;65964;43.496;3.710;2023-02-15T15:45:19;6.82;;;3.50;;
71730;SDS011;65964;43.496;3.710;2023-02-15T15:47:58;6.30;;;3.50;;
71730;SDS011;65964;43.496;3.710;2023-02-15T15:50:26;6.40;;;3.25;;
71730;SDS011;65964;43.496;3.710;2023-02-15T15:52:57;8.95;;;3.60;;
71730;SDS011;65964;43.496;3.710;2023-02-15T15:55:24;8.57;;;3.60;;
71730;SDS011;65964;43.496;3.710;2023-02-15T15:57:52;8.55;;;3.55;;
71730;SDS011;65964;43.496;3.710;2023-02-15T16:02:51;7.50;;;3.30;;
71730;SDS011;65964;43.496;3.710;2023-02-15T16:05:17;8.20;;;4.03;;
71730;SDS011;65964;43.496;3.710;2023-02-15T16:07:44;6.00;;;3.50;;
71730;SDS011;65964;43.496;3.710;2023-02-15T16:10:26;7.13;;;3.70;;
71730;SDS011;65964;43.496;3.710;2023-02-15T16:12:53;5.90;;;3.75;;
71730;SDS011;65964;43.496;3.710;2023-02-15T16:15:23;6.95;;;3.47;;
71730;SDS011;65964;43.496;3.710;2023-02-15T16:17:53;7.10;;;3.33;;
71730;SDS011;65964;43.496;3.710;2023-02-15T16:20:31;7.07;;;3.40;;
71730;SDS011;65964;43.496;3.710;2023-02-15T16:28:12;6.18;;;3.42;;
71730;SDS011;65964;43.496;3.710;2023-02-15T16:30:40;6.20;;;3.63;;
71730;SDS011;65964;43.496;3.710;2023-02-15T16:33:14;6.60;;;3.80;;
71730;SDS011;65964;43.496;3.710;2023-02-15T16:35:53;7.55;;;3.60;;
71730;SDS011;65964;43.496;3.710;2023-02-15T16:38:24;6.82;;;3.80;;
71730;SDS011;65964;43.496;3.710;2023-02-15T16:40:55;7.53;;;3.95;;
71730;SDS011;65964;43.496;3.710;2023-02-15T16:43:26;6.13;;;3.75;;
71730;SDS011;65964;43.496;3.710;2023-02-15T16:45:53;10.73;;;5.07;;
71730;SDS011;65964;43.496;3.710;2023-02-15T16:48:22;7.47;;;3.90;;
71730;SDS011;65964;43.496;3.710;2023-02-15T16:50:51;7.22;;;4.22;;
71730;SDS011;65964;43.496;3.710;2023-02-15T16:53:27;9.95;;;4.65;;
71730;SDS011;65964;43.496;3.710;2023-02-15T17:00:46;8.77;;;3.83;;
71730;SDS011;65964;43.496;3.710;2023-02-15T17:05:45;11.18;;;4.20;;
71730;SDS011;65964;43.496;3.710;2023-02-15T17:08:15;8.32;;;4.40;;
71730;SDS011;65964;43.496;3.710;2023-02-15T17:10:44;15.82;;;8.80;;
71730;SDS011;65964;43.496;3.710;2023-02-15T17:13:15;19.65;;;10.77;;
71730;SDS011;65964;43.496;3.710;2023-02-15T17:15:42;22.42;;;11.85;;
71730;SDS011;65964;43.496;3.710;2023-02-15T17:18:13;15.63;;;8.98;;
71730;SDS011;65964;43.496;3.710;2023-02-15T17:20:41;8.85;;;5.35;;
71730;SDS011;65964;43.496;3.710;2023-02-15T17:25:49;10.40;;;5.15;;
71730;SDS011;65964;43.496;3.710;2023-02-15T17:28:17;6.70;;;4.10;;
71730;SDS011;65964;43.496;3.710;2023-02-15T17:30:45;8.25;;;4.30;;
71730;SDS011;65964;43.496;3.710;2023-02-15T17:33:22;7.55;;;4.07;;
71730;SDS011;65964;43.496;3.710;2023-02-15T17:36:03;8.38;;;4.13;;
71730;SDS011;65964;43.496;3.710;2023-02-15T17:38:42;10.50;;;4.88;;
71730;SDS011;65964;43.496;3.710;2023-02-15T17:41:25;8.13;;;4.75;;
71730;SDS011;65964;43.496;3.710;2023-02-15T17:43:51;8.27;;;4.88;;
71730;SDS011;65964;43.496;3.710;2023-02-15T17:46:17;11.27;;;4.88;;
71730;SDS011;65964;43.496;3.710;2023-02-15T17:48:47;9.70;;;5.03;;
71730;SDS011;65964;43.496;3.710;2023-02-15T17:51:13;8.95;;;4.85;;
71730;SDS011;65964;43.496;3.710;2023-02-15T17:53:40;11.63;;;4.38;;
71730;SDS011;65964;43.496;3.710;2023-02-15T17:56:26;10.88;;;5.18;;
71730;SDS011;65964;43.496;3.710;2023-02-15T17:58:52;14.13;;;6.18;;
71730;SDS011;65964;43.496;3.710;2023-02-15T18:01:18;9.82;;;5.50;;
71730;SDS011;65964;43.496;3.710;2023-02-15T18:04:04;14.95;;;9.10;;